createdAt,value
2023-06-18T00:00:12.501Z,19.42
2023-06-18T00:02:40.996Z,18.80
2023-06-18T00:05:09.620Z,19.05
2023-06-18T00:07:37.738Z,19.05
2023-06-18T00:10:06.429Z,20.40
2023-06-18T00:12:34.410Z,19.60
2023-06-18T00:15:05.008Z,23.00
2023-06-18T00:17:33.902Z,19.98
2023-06-18T00:20:02.098Z,18.95
2023-06-18T00:22:30.181Z,20.40
2023-06-18T00:24:58.144Z,19.65
2023-06-18T00:27:26.284Z,20.80
2023-06-18T00:29:54.538Z,18.13
2023-06-18T00:32:23.911Z,17.60
2023-06-18T00:34:54.475Z,18.77
2023-06-18T00:37:23.163Z,19.00
2023-06-18T00:39:51.214Z,18.27
2023-06-18T00:42:19.586Z,19.25
2023-06-18T00:44:48.194Z,18.73
2023-06-18T00:47:16.508Z,18.83
2023-06-18T00:49:46.583Z,18.95
2023-06-18T00:52:15.608Z,20.20
2023-06-18T00:54:46.003Z,20.17
2023-06-18T00:57:15.552Z,20.10
2023-06-18T00:59:45.481Z,18.90
2023-06-18T01:02:15.195Z,19.98
2023-06-18T01:04:46.435Z,19.30
2023-06-18T01:07:17.558Z,19.33
2023-06-18T01:09:54.684Z,19.20
2023-06-18T01:12:23.778Z,21.05
2023-06-18T01:14:52.577Z,20.05
2023-06-18T01:17:23.688Z,19.38
2023-06-18T01:19:58.179Z,19.63
2023-06-18T01:22:34.039Z,19.48
2023-06-18T01:25:07.034Z,20.05
2023-06-18T01:27:41.594Z,18.67
2023-06-18T01:30:10.744Z,18.75
2023-06-18T01:32:39.372Z,19.73
2023-06-18T01:35:16.687Z,19.20
2023-06-18T01:37:58.184Z,19.52
2023-06-18T01:40:36.028Z,19.55
2023-06-18T01:43:13.177Z,20.13
2023-06-18T01:45:47.815Z,18.75
2023-06-18T01:48:17.881Z,19.35
2023-06-18T01:50:49.441Z,19.77
2023-06-18T01:53:19.689Z,19.65
2023-06-18T01:55:50.391Z,19.75
2023-06-18T01:58:18.959Z,18.83
2023-06-18T02:00:47.100Z,18.65
2023-06-18T02:03:15.121Z,18.83
2023-06-18T02:05:43.190Z,18.77
2023-06-18T02:08:12.587Z,19.58
2023-06-18T02:10:40.588Z,19.58
2023-06-18T02:13:09.021Z,20.70
2023-06-18T02:15:37.323Z,19.38
2023-06-18T02:18:05.703Z,19.30
2023-06-18T02:20:33.870Z,20.27
2023-06-18T02:23:01.901Z,19.20
2023-06-18T02:25:31.327Z,19.58
2023-06-18T02:27:59.569Z,19.35
2023-06-18T02:30:30.331Z,18.65
2023-06-18T02:32:59.897Z,19.27
2023-06-18T02:35:28.268Z,18.92
2023-06-18T02:37:56.624Z,17.48
2023-06-18T02:40:25.011Z,16.98
2023-06-18T02:42:54.542Z,17.85
2023-06-18T02:45:24.337Z,17.77
2023-06-18T02:47:52.431Z,17.88
2023-06-18T02:50:21.993Z,18.92
2023-06-18T02:52:50.368Z,17.63
2023-06-18T02:55:18.550Z,18.23
2023-06-18T02:57:47.834Z,17.35
2023-06-18T03:00:17.759Z,19.10
2023-06-18T03:02:46.127Z,19.45
2023-06-18T03:05:14.344Z,18.27
2023-06-18T03:07:42.459Z,19.23
2023-06-18T03:10:11.107Z,18.75
2023-06-18T03:12:39.185Z,19.52
2023-06-18T03:15:08.363Z,20.05
2023-06-18T03:17:37.825Z,19.63
2023-06-18T03:20:08.443Z,18.15
2023-06-18T03:22:36.456Z,19.67
2023-06-18T03:25:04.504Z,19.08
2023-06-18T03:27:32.459Z,19.60
2023-06-18T03:30:00.493Z,18.70
2023-06-18T03:32:30.640Z,17.98
2023-06-18T03:35:00.026Z,16.45
2023-06-18T03:37:29.193Z,16.95
2023-06-18T03:39:57.176Z,17.13
2023-06-18T03:42:26.288Z,16.35
2023-06-18T03:44:54.360Z,16.85
2023-06-18T03:47:22.475Z,16.63
2023-06-18T03:49:50.669Z,15.95
2023-06-18T03:52:20.013Z,16.35
2023-06-18T03:54:48.709Z,17.33
2023-06-18T03:57:16.883Z,17.15
2023-06-18T03:59:44.885Z,17.95
2023-06-18T04:02:15.366Z,18.95
2023-06-18T04:04:43.503Z,17.20
2023-06-18T04:07:11.690Z,17.55
2023-06-18T04:09:41.122Z,17.58
2023-06-18T04:12:10.478Z,17.85
2023-06-18T04:14:38.637Z,18.20
2023-06-18T04:17:06.901Z,18.60
2023-06-18T04:19:35.082Z,19.02
2023-06-18T04:22:03.222Z,18.27
2023-06-18T04:24:31.240Z,18.08
2023-06-18T04:27:00.659Z,17.02
2023-06-18T04:29:28.809Z,17.48
2023-06-18T04:31:56.905Z,17.05
2023-06-18T04:34:24.906Z,17.08
2023-06-18T04:36:52.896Z,17.92
2023-06-18T04:39:21.539Z,17.65
2023-06-18T04:41:49.556Z,17.73
2023-06-18T04:44:19.474Z,17.23
2023-06-18T04:46:47.499Z,16.90
2023-06-18T04:49:16.268Z,17.92
2023-06-18T04:51:44.843Z,18.02
2023-06-18T04:54:13.314Z,17.38
2023-06-18T04:56:41.476Z,18.00
2023-06-18T04:59:09.520Z,17.73
2023-06-18T05:01:38.920Z,18.80
2023-06-18T05:04:07.097Z,17.95
2023-06-18T05:06:35.154Z,18.05
2023-06-18T05:09:03.700Z,18.25
2023-06-18T05:11:31.684Z,18.98
2023-06-18T05:13:59.929Z,19.08
2023-06-18T05:16:27.947Z,19.08
2023-06-18T05:18:57.401Z,18.90
2023-06-18T05:21:26.872Z,19.20
2023-06-18T05:23:55.078Z,19.55
2023-06-18T05:26:23.198Z,22.35
2023-06-18T05:28:51.655Z,18.83
2023-06-18T05:31:19.800Z,17.88
2023-06-18T05:33:47.937Z,19.02
2023-06-18T05:36:17.515Z,17.90
2023-06-18T05:38:45.617Z,18.67
2023-06-18T05:41:13.604Z,19.90
2023-06-18T05:43:41.587Z,20.02
2023-06-18T05:46:09.628Z,19.55
2023-06-18T05:48:37.671Z,20.05
2023-06-18T05:51:05.969Z,20.00
2023-06-18T05:53:35.431Z,21.25
2023-06-18T05:56:03.494Z,20.20
2023-06-18T05:58:31.600Z,22.00
2023-06-18T06:00:59.600Z,20.33
2023-06-18T06:03:27.661Z,29.40
2023-06-18T06:05:55.979Z,22.15
2023-06-18T06:08:24.190Z,23.40
2023-06-18T06:10:53.908Z,22.15
2023-06-18T06:13:22.230Z,20.85
2023-06-18T06:15:50.234Z,21.13
2023-06-18T06:18:18.256Z,20.48
2023-06-18T06:20:46.337Z,21.25
2023-06-18T06:23:14.329Z,20.70
2023-06-18T06:25:42.513Z,20.77
2023-06-18T06:28:12.591Z,20.27
2023-06-18T06:30:40.704Z,20.27
2023-06-18T06:33:08.757Z,20.50
2023-06-18T06:35:37.720Z,19.80
2023-06-18T06:38:05.769Z,20.27
2023-06-18T06:40:33.975Z,21.02
2023-06-18T06:43:02.070Z,21.23
2023-06-18T06:45:31.514Z,20.52
2023-06-18T06:47:59.907Z,20.95
2023-06-18T06:50:28.035Z,20.83
2023-06-18T06:52:56.149Z,21.52
2023-06-18T06:55:24.261Z,21.17
2023-06-18T06:57:52.237Z,21.10
2023-06-18T07:00:20.593Z,21.63
2023-06-18T07:02:50.417Z,21.88
2023-06-18T07:05:18.911Z,22.23
2023-06-18T07:07:47.321Z,21.13
2023-06-18T07:10:15.395Z,20.17
2023-06-18T07:12:43.353Z,21.27
2023-06-18T07:15:12.097Z,21.35
2023-06-18T07:17:40.194Z,22.02
2023-06-18T07:20:10.452Z,20.65
2023-06-18T07:22:38.425Z,22.42
2023-06-18T07:25:07.371Z,20.75
2023-06-18T07:27:36.470Z,20.85
2023-06-18T07:30:04.941Z,21.48
2023-06-18T07:32:33.169Z,21.92
2023-06-18T07:35:01.271Z,21.15
2023-06-18T07:37:30.650Z,20.58
2023-06-18T07:39:58.878Z,21.05
2023-06-18T07:42:26.905Z,21.00
2023-06-18T07:44:54.894Z,22.00
2023-06-18T07:47:23.150Z,21.10
2023-06-18T07:49:51.245Z,21.08
2023-06-18T07:52:19.602Z,21.15
2023-06-18T07:54:48.970Z,21.70
2023-06-18T07:57:17.116Z,20.67
2023-06-18T07:59:45.220Z,22.88
2023-06-18T08:02:13.248Z,50.95
2023-06-18T08:04:41.712Z,78.88
2023-06-18T08:07:09.754Z,93.93
2023-06-18T08:09:37.756Z,78.70
2023-06-18T08:12:08.684Z,99.30
2023-06-18T08:14:36.686Z,67.78
2023-06-18T08:17:04.973Z,71.82
2023-06-18T08:19:33.663Z,69.28
2023-06-18T08:22:02.470Z,62.22
2023-06-18T08:24:30.484Z,59.08
2023-06-18T08:26:58.501Z,59.60
2023-06-18T08:29:27.943Z,60.28
2023-06-18T08:31:55.936Z,63.65
2023-06-18T08:34:25.108Z,65.00
2023-06-18T08:36:53.096Z,66.13
2023-06-18T08:39:21.111Z,65.20
2023-06-18T08:41:49.203Z,68.25
2023-06-18T08:44:17.612Z,67.30
2023-06-18T08:46:51.427Z,66.50
2023-06-18T08:49:21.216Z,67.30
2023-06-18T08:51:52.144Z,66.18
2023-06-18T08:54:21.069Z,67.72
2023-06-18T08:56:56.755Z,70.57
2023-06-18T08:59:26.448Z,70.05
2023-06-18T09:01:56.362Z,68.28
2023-06-18T09:04:25.713Z,71.65
2023-06-18T09:06:55.067Z,70.75
2023-06-18T09:09:23.400Z,71.40
2023-06-18T09:11:51.404Z,70.68
2023-06-18T09:14:19.451Z,72.10
2023-06-18T09:16:47.458Z,70.03
2023-06-18T09:19:17.435Z,70.72
2023-06-18T09:21:46.314Z,66.75
2023-06-18T09:24:18.365Z,70.75
2023-06-18T09:26:46.917Z,69.88
2023-06-18T09:29:15.431Z,69.40
2023-06-18T09:31:46.109Z,71.13
2023-06-18T09:34:17.911Z,68.75
2023-06-18T09:36:47.169Z,71.95
2023-06-18T09:39:19.829Z,71.03
2023-06-18T09:41:49.020Z,73.07
2023-06-18T09:44:17.930Z,72.78
2023-06-18T09:46:47.302Z,72.10
2023-06-18T09:49:19.431Z,73.82
2023-06-18T09:51:51.644Z,73.38
2023-06-18T09:54:20.317Z,74.33
2023-06-18T09:56:58.582Z,71.30
2023-06-18T09:59:27.097Z,75.00
2023-06-18T10:01:56.088Z,74.70
2023-06-18T10:04:26.650Z,75.18
2023-06-18T10:06:59.020Z,73.45
2023-06-18T10:09:33.463Z,76.82
2023-06-18T10:12:02.637Z,75.40
2023-06-18T10:14:31.931Z,73.78
2023-06-18T10:17:10.302Z,71.13
2023-06-18T10:19:48.714Z,73.15
2023-06-18T10:22:19.280Z,73.50
2023-06-18T10:24:52.106Z,71.32
2023-06-18T10:27:20.763Z,75.35
2023-06-18T10:29:48.912Z,74.63
2023-06-18T10:32:17.643Z,72.70
2023-06-18T10:34:47.655Z,79.00
2023-06-18T10:37:16.974Z,77.07
2023-06-18T10:39:45.790Z,77.55
2023-06-18T10:42:16.548Z,77.72
2023-06-18T10:44:52.570Z,75.55
2023-06-18T10:47:22.190Z,78.97
2023-06-18T10:50:18.012Z,80.05
2023-06-18T10:52:49.658Z,78.43
2023-06-18T10:55:31.466Z,75.55
2023-06-18T10:58:02.749Z,75.95
2023-06-18T11:00:38.100Z,75.18
2023-06-18T11:03:09.100Z,76.68
2023-06-18T11:05:46.226Z,72.47
2023-06-18T11:08:15.815Z,71.00
2023-06-18T11:10:46.571Z,73.55
2023-06-18T11:13:15.350Z,71.93
2023-06-18T11:16:00.516Z,72.60
2023-06-18T11:18:29.718Z,72.32
2023-06-18T11:21:00.869Z,75.32
2023-06-18T11:23:32.347Z,75.70
2023-06-18T11:26:00.918Z,76.75
2023-06-18T11:28:28.932Z,73.75
2023-06-18T11:30:59.668Z,73.45
2023-06-18T11:33:29.266Z,77.45
2023-06-18T11:36:10.312Z,76.57
2023-06-18T11:38:38.884Z,76.50
2023-06-18T11:41:06.910Z,77.97
2023-06-18T11:43:48.360Z,76.55
2023-06-18T11:46:30.867Z,75.78
2023-06-18T11:49:00.564Z,75.85
2023-06-18T11:51:32.225Z,75.20
2023-06-18T11:54:00.868Z,76.40
2023-06-18T11:56:31.309Z,74.28
2023-06-18T11:59:00.982Z,75.00
2023-06-18T12:01:30.078Z,75.60
2023-06-18T12:04:06.319Z,71.88
2023-06-18T12:06:36.296Z,70.85
2023-06-18T12:09:08.896Z,73.13
2023-06-18T12:11:49.761Z,74.03
2023-06-18T12:14:32.929Z,72.78
2023-06-18T12:17:07.578Z,71.57
2023-06-18T12:19:36.834Z,71.55
2023-06-18T12:22:06.601Z,69.68
2023-06-18T12:24:34.722Z,73.65
2023-06-18T12:27:03.044Z,68.28
2023-06-18T12:29:31.270Z,73.38
2023-06-18T12:32:06.458Z,70.40
2023-06-18T12:34:36.691Z,70.28
2023-06-18T12:37:06.587Z,71.65
2023-06-18T12:39:37.669Z,69.78
2023-06-18T12:42:10.836Z,71.70
2023-06-18T12:44:40.425Z,69.65
2023-06-18T12:47:09.140Z,67.90
2023-06-18T12:49:40.119Z,70.63
2023-06-18T12:52:18.453Z,67.57
2023-06-18T12:54:48.056Z,66.20
2023-06-18T12:57:17.066Z,66.53
2023-06-18T12:59:54.129Z,66.70
2023-06-18T13:02:22.720Z,68.90
2023-06-18T13:04:51.434Z,69.68
2023-06-18T13:07:20.863Z,72.13
2023-06-18T13:09:48.959Z,71.40
2023-06-18T13:12:17.404Z,71.20
2023-06-18T13:14:45.385Z,69.25
2023-06-18T13:17:13.558Z,74.38
2023-06-18T13:19:58.285Z,72.32
2023-06-18T13:22:29.737Z,71.35
2023-06-18T13:24:58.747Z,70.07
2023-06-18T13:27:27.139Z,69.15
2023-06-18T13:29:55.280Z,65.57
2023-06-18T13:32:23.529Z,66.22
2023-06-18T13:34:52.010Z,68.30
2023-06-18T13:37:20.542Z,69.13
2023-06-18T13:39:50.665Z,70.32
2023-06-18T13:42:19.115Z,69.55
2023-06-18T13:44:47.131Z,68.80
2023-06-18T13:47:15.146Z,71.20
2023-06-18T13:49:43.664Z,69.15
2023-06-18T13:52:12.684Z,70.30
2023-06-18T13:54:40.690Z,69.97
2023-06-18T13:57:10.164Z,71.32
2023-06-18T13:59:38.318Z,69.65
2023-06-18T14:02:06.724Z,66.68
2023-06-18T14:04:36.850Z,68.28
2023-06-18T14:07:05.643Z,67.60
2023-06-18T14:09:33.811Z,68.45
2023-06-18T14:12:02.241Z,69.68
2023-06-18T14:14:32.857Z,67.88
2023-06-18T14:17:01.089Z,69.43
2023-06-18T14:19:29.325Z,68.30
2023-06-18T14:21:57.335Z,67.50
2023-06-18T14:24:25.415Z,66.10
2023-06-18T14:26:54.099Z,68.60
2023-06-18T14:29:22.095Z,72.00
2023-06-18T14:31:51.425Z,70.57
2023-06-18T14:34:19.721Z,70.40
2023-06-18T14:36:47.720Z,71.05
2023-06-18T14:39:15.714Z,72.00
2023-06-18T14:41:43.697Z,71.40
2023-06-18T14:44:11.667Z,72.05
2023-06-18T14:46:39.688Z,73.65
2023-06-18T14:49:09.261Z,70.85
2023-06-18T14:51:37.274Z,70.82
2023-06-18T14:54:12.868Z,77.32
2023-06-18T14:56:42.405Z,68.88
2023-06-18T14:59:10.481Z,65.88
2023-06-18T15:01:38.974Z,21.85
2023-06-18T15:04:08.945Z,22.00
2023-06-18T15:06:37.472Z,21.38
2023-06-18T15:09:06.800Z,21.77
2023-06-18T15:11:35.268Z,25.10
2023-06-18T15:14:03.295Z,21.73
2023-06-18T15:16:32.435Z,21.20
2023-06-18T15:19:00.478Z,21.77
2023-06-18T15:21:29.969Z,21.58
2023-06-18T15:23:58.067Z,20.83
2023-06-18T15:26:27.485Z,21.95
2023-06-18T15:28:55.602Z,20.67
2023-06-18T15:31:23.636Z,21.58
2023-06-18T15:33:51.979Z,21.65
2023-06-18T15:36:19.990Z,20.55
2023-06-18T15:38:50.051Z,21.38
2023-06-18T15:41:18.151Z,20.80
2023-06-18T15:43:46.267Z,20.98
2023-06-18T15:46:17.149Z,21.27
2023-06-18T15:48:45.839Z,21.30
2023-06-18T15:51:14.194Z,21.15
2023-06-18T15:53:43.888Z,20.40
2023-06-18T15:56:13.267Z,21.15
2023-06-18T15:58:41.249Z,22.20
2023-06-18T16:01:09.319Z,22.23
2023-06-18T16:03:37.313Z,21.85
2023-06-18T16:06:05.586Z,21.52
2023-06-18T16:08:33.624Z,21.63
2023-06-18T16:11:01.811Z,22.20
2023-06-18T16:13:31.313Z,22.10
2023-06-18T16:15:59.380Z,21.75
2023-06-18T16:18:27.388Z,21.25
2023-06-18T16:20:55.591Z,20.85
2023-06-18T16:23:23.600Z,21.60
2023-06-18T16:25:51.844Z,20.92
2023-06-18T16:28:19.801Z,21.45
2023-06-18T16:30:49.238Z,20.88
2023-06-18T16:33:17.259Z,20.58
2023-06-18T16:35:45.263Z,21.30
2023-06-18T16:38:13.227Z,20.30
2023-06-18T16:40:41.313Z,20.65
2023-06-18T16:43:09.324Z,20.52
2023-06-18T16:45:37.979Z,21.52
2023-06-18T16:48:07.814Z,20.00
2023-06-18T16:50:35.961Z,21.58
2023-06-18T16:53:03.952Z,21.77
2023-06-18T16:55:31.977Z,21.00
2023-06-18T16:58:00.041Z,20.85
2023-06-18T17:00:28.048Z,21.73
2023-06-18T17:02:56.094Z,21.20
2023-06-18T17:05:25.708Z,21.80
2023-06-18T17:07:53.812Z,22.52
2023-06-18T17:10:21.989Z,21.08
2023-06-18T17:12:50.046Z,20.20
2023-06-18T17:15:18.140Z,23.15
2023-06-18T17:17:46.467Z,20.67
2023-06-18T17:20:16.328Z,19.15
2023-06-18T17:22:45.949Z,20.15
2023-06-18T17:25:13.992Z,20.77
2023-06-18T17:27:41.986Z,20.77
2023-06-18T17:30:10.881Z,20.08
2023-06-18T17:32:38.941Z,20.90
2023-06-18T17:35:07.510Z,20.88
2023-06-18T17:37:35.603Z,21.83
2023-06-18T17:40:05.296Z,20.05
2023-06-18T17:42:33.285Z,19.48
2023-06-18T17:45:01.258Z,20.80
2023-06-18T17:47:29.408Z,19.25
2023-06-18T17:49:58.791Z,21.70
2023-06-18T17:52:26.866Z,22.23
2023-06-18T17:54:55.028Z,20.45
2023-06-18T17:57:24.510Z,21.15
2023-06-18T17:59:52.490Z,21.20
2023-06-18T18:02:20.545Z,22.17
2023-06-18T18:04:48.592Z,20.15
2023-06-18T18:07:16.583Z,19.48
2023-06-18T18:09:44.718Z,20.20
2023-06-18T18:12:12.780Z,20.35
2023-06-18T18:14:42.208Z,20.48
2023-06-18T18:17:10.226Z,20.95
2023-06-18T18:19:38.193Z,21.45
2023-06-18T18:22:06.716Z,20.73
2023-06-18T18:24:34.732Z,20.25
2023-06-18T18:27:02.747Z,20.83
2023-06-18T18:29:30.750Z,20.83
2023-06-18T18:32:00.781Z,20.70
2023-06-18T18:34:28.815Z,20.67
2023-06-18T18:36:58.312Z,20.95
2023-06-18T18:39:26.311Z,20.52
2023-06-18T18:41:54.405Z,20.60
2023-06-18T18:44:22.442Z,20.98
2023-06-18T18:46:50.410Z,20.25
2023-06-18T18:49:19.744Z,21.17
2023-06-18T18:51:47.735Z,21.52
2023-06-18T18:54:17.439Z,21.02
2023-06-18T18:56:45.443Z,20.15
2023-06-18T18:59:13.484Z,20.58
2023-06-18T19:01:43.064Z,19.90
2023-06-18T19:04:11.376Z,19.85
2023-06-18T19:06:40.722Z,21.63
2023-06-18T19:09:08.973Z,20.40
2023-06-18T19:11:37.082Z,21.58
2023-06-18T19:14:05.129Z,22.17
2023-06-18T19:16:33.135Z,21.05
2023-06-18T19:19:01.156Z,21.48
2023-06-18T19:21:29.203Z,20.23
2023-06-18T19:23:58.596Z,21.10
2023-06-18T19:26:26.882Z,22.13
2023-06-18T19:28:56.980Z,21.15
2023-06-18T19:31:24.979Z,22.00
2023-06-18T19:33:52.975Z,21.02
2023-06-18T19:36:21.006Z,20.65
2023-06-18T19:38:49.545Z,22.90
2023-06-18T19:41:18.916Z,21.85
2023-06-18T19:43:47.251Z,22.67
2023-06-18T19:46:15.254Z,22.08
2023-06-18T19:48:43.260Z,21.98
2023-06-18T19:51:11.282Z,22.02
2023-06-18T19:53:39.506Z,21.50
2023-06-18T19:56:07.788Z,22.50
2023-06-18T19:58:37.110Z,21.98
2023-06-18T20:01:05.326Z,21.17
2023-06-18T20:03:33.453Z,22.13
2023-06-18T20:06:01.485Z,21.98
2023-06-18T20:08:29.481Z,21.75
2023-06-18T20:10:58.715Z,21.80
2023-06-18T20:13:26.700Z,20.90
2023-06-18T20:15:57.285Z,22.58
2023-06-18T20:18:25.623Z,21.88
2023-06-18T20:20:54.798Z,21.40
2023-06-18T20:23:23.038Z,22.42
2023-06-18T20:25:51.052Z,23.17
2023-06-18T20:28:19.045Z,22.85
2023-06-18T20:30:47.094Z,22.67
2023-06-18T20:33:16.519Z,21.73
2023-06-18T20:35:44.645Z,21.60
2023-06-18T20:38:12.665Z,22.75
2023-06-18T20:40:40.686Z,20.98
2023-06-18T20:43:08.676Z,22.75
2023-06-18T20:45:36.838Z,22.35
2023-06-18T20:48:05.035Z,21.25
2023-06-18T20:50:35.706Z,22.02
2023-06-18T20:53:04.232Z,21.60
2023-06-18T20:55:32.211Z,21.88
2023-06-18T20:58:00.291Z,22.15
2023-06-18T21:00:28.457Z,21.33
2023-06-18T21:02:56.870Z,21.20
2023-06-18T21:05:24.974Z,21.35
2023-06-18T21:07:54.298Z,21.45
2023-06-18T21:10:22.658Z,22.02
2023-06-18T21:12:53.161Z,21.45
2023-06-18T21:15:21.182Z,20.85
2023-06-18T21:17:49.295Z,20.80
2023-06-18T21:20:17.419Z,22.10
2023-06-18T21:22:45.416Z,20.52
2023-06-18T21:25:15.659Z,21.63
2023-06-18T21:27:43.828Z,23.27
2023-06-18T21:30:12.397Z,23.25
2023-06-18T21:32:40.532Z,22.45
2023-06-18T21:35:09.092Z,22.33
2023-06-18T21:37:42.579Z,22.35
2023-06-18T21:40:11.808Z,21.58
2023-06-18T21:42:41.171Z,22.00
2023-06-18T21:45:09.826Z,21.52
2023-06-18T21:47:37.923Z,21.95
2023-06-18T21:50:06.647Z,21.48
2023-06-18T21:52:34.783Z,21.02
2023-06-18T21:55:02.846Z,21.20
2023-06-18T21:57:30.854Z,23.48
2023-06-18T22:00:00.345Z,20.98
2023-06-18T22:02:28.622Z,23.27
2023-06-18T22:04:56.649Z,20.90
2023-06-18T22:07:24.725Z,20.90
2023-06-18T22:09:52.822Z,20.45
2023-06-18T22:12:21.563Z,21.63
2023-06-18T22:14:50.517Z,21.40
2023-06-18T22:17:20.952Z,22.20
2023-06-18T22:19:49.045Z,20.25
2023-06-18T22:22:17.176Z,19.60
2023-06-18T22:24:46.554Z,21.58
2023-06-18T22:27:15.581Z,20.77
2023-06-18T22:29:43.667Z,21.80
2023-06-18T22:32:11.876Z,22.48
2023-06-18T22:34:43.241Z,20.27
2023-06-18T22:37:11.837Z,22.90
2023-06-18T22:39:40.024Z,20.17
2023-06-18T22:42:08.634Z,22.23
2023-06-18T22:44:36.692Z,21.23
2023-06-18T22:47:04.789Z,20.90
2023-06-18T22:49:32.838Z,21.13
2023-06-18T22:52:02.197Z,22.38
2023-06-18T22:54:30.198Z,19.95
2023-06-18T22:56:58.226Z,21.83
2023-06-18T22:59:26.324Z,20.20
2023-06-18T23:01:55.085Z,21.05
2023-06-18T23:04:23.122Z,21.17
2023-06-18T23:06:51.143Z,21.50
2023-06-18T23:09:20.573Z,20.40
2023-06-18T23:11:48.585Z,20.25
2023-06-18T23:14:18.931Z,20.35
2023-06-18T23:16:47.150Z,21.38
2023-06-18T23:19:15.305Z,20.48
2023-06-18T23:21:47.997Z,20.88
2023-06-18T23:24:17.162Z,21.55
2023-06-18T23:26:46.640Z,20.77
2023-06-18T23:29:14.660Z,20.83
2023-06-18T23:31:42.949Z,20.52
2023-06-18T23:34:10.962Z,20.73
2023-06-18T23:36:40.131Z,19.70
2023-06-18T23:39:08.693Z,19.60
2023-06-18T23:41:36.702Z,19.95
2023-06-18T23:44:06.332Z,20.73
2023-06-18T23:46:34.407Z,20.60
2023-06-18T23:49:02.493Z,19.67
2023-06-18T23:51:30.482Z,20.45
2023-06-18T23:53:58.486Z,18.60
2023-06-18T23:56:26.507Z,20.10
2023-06-18T23:58:54.694Z,20.38
